sensor_id;sensor_type;location;lat;lon;timestamp;pressure;altitude;pressure_sealevel;temperature;humidity
55914;BME280;58179;48.776;9.124;2023-02-26T00:01:16;96824.63;;;0.45;100.00
55914;BME280;58179;48.776;9.124;2023-02-26T00:03:42;96823.41;;;0.41;100.00
55914;BME280;58179;48.776;9.124;2023-02-26T00:06:10;96831.41;;;0.46;100.00
55914;BME280;58179;48.776;9.124;2023-02-26T00:08:35;96827.00;;;0.40;100.00
55914;BME280;58179;48.776;9.124;2023-02-26T00:11:06;96828.81;;;0.39;100.00
55914;BME280;58179;48.776;9.124;2023-02-26T00:13:32;96833.44;;;0.37;100.00
55914;BME280;58179;48.776;9.124;2023-02-26T00:16:00;96835.81;;;0.39;100.00
55914;BME280;58179;48.776;9.124;2023-02-26T00:18:27;96834.63;;;0.42;100.00
55914;BME280;58179;48.776;9.124;2023-02-26T00:20:54;96838.41;;;0.39;100.00
55914;BME280;58179;48.776;9.124;2023-02-26T00:23:22;96833.63;;;0.36;100.00
55914;BME280;58179;48.776;9.124;2023-02-26T00:25:49;96837.44;;;0.33;100.00
55914;BME280;58179;48.776;9.124;2023-02-26T00:28:15;96830.22;;;0.29;100.00
55914;BME280;58179;48.776;9.124;2023-02-26T00:30:42;96827.63;;;0.22;100.00
55914;BME280;58179;48.776;9.124;2023-02-26T00:33:08;96829.63;;;0.14;100.00
55914;BME280;58179;48.776;9.124;2023-02-26T00:35:35;96833.78;;;0.08;100.00
55914;BME280;58179;48.776;9.124;2023-02-26T00:38:03;96832.59;;;0.04;100.00
55914;BME280;58179;48.776;9.124;2023-02-26T00:40:42;96832.41;;;-0.01;100.00
55914;BME280;58179;48.776;9.124;2023-02-26T00:43:13;96836.59;;;0.00;100.00
55914;BME280;58179;48.776;9.124;2023-02-26T00:45:44;96835.19;;;-0.09;100.00
55914;BME280;58179;48.776;9.124;2023-02-26T00:48:26;96838.78;;;-0.10;100.00
55914;BME280;58179;48.776;9.124;2023-02-26T00:51:01;96837.78;;;-0.16;100.00
55914;BME280;58179;48.776;9.124;2023-02-26T00:53:33;96838.16;;;-0.19;100.00
55914;BME280;58179;48.776;9.124;2023-02-26T00:56:01;96837.72;;;-0.22;100.00
55914;BME280;58179;48.776;9.124;2023-02-26T00:58:27;96837.16;;;-0.24;100.00
55914;BME280;58179;48.776;9.124;2023-02-26T01:00:53;96835.13;;;-0.29;100.00
55914;BME280;58179;48.776;9.124;2023-02-26T01:03:20;96844.50;;;-0.34;100.00
55914;BME280;58179;48.776;9.124;2023-02-26T01:05:46;96834.72;;;-0.39;100.00
55914;BME280;58179;48.776;9.124;2023-02-26T01:08:17;96838.50;;;-0.42;100.00
55914;BME280;58179;48.776;9.124;2023-02-26T01:10:45;96843.88;;;-0.43;100.00
55914;BME280;58179;48.776;9.124;2023-02-26T01:13:13;96839.28;;;-0.41;100.00
55914;BME280;58179;48.776;9.124;2023-02-26T01:15:43;96846.09;;;-0.40;100.00
55914;BME280;58179;48.776;9.124;2023-02-26T01:18:15;96839.91;;;-0.39;100.00
55914;BME280;58179;48.776;9.124;2023-02-26T01:20:48;96843.50;;;-0.40;100.00
55914;BME280;58179;48.776;9.124;2023-02-26T01:23:20;96842.28;;;-0.38;100.00
55914;BME280;58179;48.776;9.124;2023-02-26T01:25:50;96840.72;;;-0.38;100.00
55914;BME280;58179;48.776;9.124;2023-02-26T01:28:21;96837.31;;;-0.39;100.00
55914;BME280;58179;48.776;9.124;2023-02-26T01:30:48;96833.66;;;-0.45;100.00
55914;BME280;58179;48.776;9.124;2023-02-26T01:33:24;96830.06;;;-0.50;100.00
55914;BME280;58179;48.776;9.124;2023-02-26T01:35:57;96833.06;;;-0.53;100.00
55914;BME280;58179;48.776;9.124;2023-02-26T01:38:30;96841.22;;;-0.63;100.00
55914;BME280;58179;48.776;9.124;2023-02-26T01:41:23;96836.38;;;-0.72;100.00
55914;BME280;58179;48.776;9.124;2023-02-26T01:44:02;96841.53;;;-0.79;100.00
55914;BME280;58179;48.776;9.124;2023-02-26T01:46:35;96838.28;;;-0.88;100.00
55914;BME280;58179;48.776;9.124;2023-02-26T01:49:07;96847.06;;;-0.95;100.00
55914;BME280;58179;48.776;9.124;2023-02-26T01:51:49;96837.63;;;-1.03;100.00
55914;BME280;58179;48.776;9.124;2023-02-26T01:54:18;96837.75;;;-1.11;100.00
55914;BME280;58179;48.776;9.124;2023-02-26T01:56:46;96843.38;;;-1.14;100.00
55914;BME280;58179;48.776;9.124;2023-02-26T01:59:17;96851.69;;;-1.19;100.00
55914;BME280;58179;48.776;9.124;2023-02-26T02:01:49;96845.72;;;-1.19;100.00
55914;BME280;58179;48.776;9.124;2023-02-26T02:04:16;96845.72;;;-1.19;100.00
55914;BME280;58179;48.776;9.124;2023-02-26T02:06:43;96845.72;;;-1.19;100.00
55914;BME280;58179;48.776;9.124;2023-02-26T02:09:11;96845.91;;;-1.21;100.00
55914;BME280;58179;48.776;9.124;2023-02-26T02:11:51;96846.91;;;-1.22;100.00
55914;BME280;58179;48.776;9.124;2023-02-26T02:14:30;96842.44;;;-1.28;100.00
55914;BME280;58179;48.776;9.124;2023-02-26T02:17:09;96839.63;;;-1.33;100.00
55914;BME280;58179;48.776;9.124;2023-02-26T02:22:52;96848.53;;;-1.42;100.00
55914;BME280;58179;48.776;9.124;2023-02-26T02:26:20;96852.53;;;-1.46;100.00
55914;BME280;58179;48.776;9.124;2023-02-26T02:32:07;96861.19;;;-1.60;100.00
55914;BME280;58179;48.776;9.124;2023-02-26T02:34:38;96859.94;;;-1.64;100.00
55914;BME280;58179;48.776;9.124;2023-02-26T02:37:15;96860.72;;;-1.70;100.00
55914;BME280;58179;48.776;9.124;2023-02-26T02:39:46;96862.88;;;-1.74;100.00
55914;BME280;58179;48.776;9.124;2023-02-26T02:42:24;96861.28;;;-1.75;100.00
55914;BME280;58179;48.776;9.124;2023-02-26T02:44:55;96865.22;;;-1.79;100.00
55914;BME280;58179;48.776;9.124;2023-02-26T02:47:26;96863.00;;;-1.82;100.00
55914;BME280;58179;48.776;9.124;2023-02-26T02:50:00;96862.56;;;-1.85;100.00
55914;BME280;58179;48.776;9.124;2023-02-26T02:52:32;96869.13;;;-1.89;100.00
55914;BME280;58179;48.776;9.124;2023-02-26T02:55:04;96867.50;;;-1.90;100.00
55914;BME280;58179;48.776;9.124;2023-02-26T02:57:36;96867.06;;;-1.94;100.00
55914;BME280;58179;48.776;9.124;2023-02-26T03:00:08;96868.84;;;-1.95;100.00
55914;BME280;58179;48.776;9.124;2023-02-26T03:02:43;96871.66;;;-1.96;100.00
55914;BME280;58179;48.776;9.124;2023-02-26T03:05:12;96867.47;;;-1.97;100.00
55914;BME280;58179;48.776;9.124;2023-02-26T03:07:47;96873.19;;;-2.02;100.00
55914;BME280;58179;48.776;9.124;2023-02-26T03:10:14;96879.00;;;-2.00;100.00
55914;BME280;58179;48.776;9.124;2023-02-26T03:12:40;96883.13;;;-2.05;100.00
55914;BME280;58179;48.776;9.124;2023-02-26T03:15:07;96886.53;;;-2.05;100.00
55914;BME280;58179;48.776;9.124;2023-02-26T03:17:42;96884.81;;;-1.98;100.00
55914;BME280;58179;48.776;9.124;2023-02-26T03:20:20;96889.06;;;-1.90;100.00
55914;BME280;58179;48.776;9.124;2023-02-26T03:23:01;96885.97;;;-1.79;100.00
55914;BME280;58179;48.776;9.124;2023-02-26T03:25:37;96887.03;;;-1.73;100.00
55914;BME280;58179;48.776;9.124;2023-02-26T03:28:10;96895.25;;;-1.70;100.00
55914;BME280;58179;48.776;9.124;2023-02-26T03:30:44;96902.28;;;-1.64;100.00
55914;BME280;58179;48.776;9.124;2023-02-26T03:33:18;96900.75;;;-1.58;100.00
55914;BME280;58179;48.776;9.124;2023-02-26T03:35:49;96899.19;;;-1.52;100.00
55914;BME280;58179;48.776;9.124;2023-02-26T03:38:24;96896.03;;;-1.48;100.00
55914;BME280;58179;48.776;9.124;2023-02-26T03:40:56;96901.66;;;-1.44;100.00
55914;BME280;58179;48.776;9.124;2023-02-26T03:43:31;96896.81;;;-1.47;100.00
55914;BME280;58179;48.776;9.124;2023-02-26T03:46:02;96899.56;;;-1.56;100.00
55914;BME280;58179;48.776;9.124;2023-02-26T03:48:33;96903.88;;;-1.63;100.00
55914;BME280;58179;48.776;9.124;2023-02-26T03:51:04;96903.59;;;-1.74;100.00
55914;BME280;58179;48.776;9.124;2023-02-26T03:53:38;96908.09;;;-1.83;100.00
55914;BME280;58179;48.776;9.124;2023-02-26T03:56:13;96907.22;;;-1.90;100.00
55914;BME280;58179;48.776;9.124;2023-02-26T03:58:41;96899.81;;;-1.93;100.00
55914;BME280;58179;48.776;9.124;2023-02-26T04:01:14;96913.50;;;-1.99;100.00
55914;BME280;58179;48.776;9.124;2023-02-26T04:03:48;96918.44;;;-2.04;100.00
55914;BME280;58179;48.776;9.124;2023-02-26T04:06:15;96916.56;;;-2.10;100.00
55914;BME280;58179;48.776;9.124;2023-02-26T04:08:42;96914.72;;;-2.16;100.00
55914;BME280;58179;48.776;9.124;2023-02-26T04:11:11;96908.47;;;-2.22;100.00
55914;BME280;58179;48.776;9.124;2023-02-26T04:13:39;96919.03;;;-2.23;100.00
55914;BME280;58179;48.776;9.124;2023-02-26T04:16:06;96922.34;;;-2.29;100.00
55914;BME280;58179;48.776;9.124;2023-02-26T04:18:31;96918.13;;;-2.30;100.00
55914;BME280;58179;48.776;9.124;2023-02-26T04:20:59;96917.72;;;-2.34;100.00
55914;BME280;58179;48.776;9.124;2023-02-26T04:23:25;96913.50;;;-2.35;100.00
55914;BME280;58179;48.776;9.124;2023-02-26T04:25:51;96925.66;;;-2.36;100.00
55914;BME280;58179;48.776;9.124;2023-02-26T04:28:17;96919.84;;;-2.38;100.00
55914;BME280;58179;48.776;9.124;2023-02-26T04:30:43;96918.25;;;-2.39;100.00
55914;BME280;58179;48.776;9.124;2023-02-26T04:33:09;96923.16;;;-2.44;100.00
55914;BME280;58179;48.776;9.124;2023-02-26T04:35:35;96925.31;;;-2.47;100.00
55914;BME280;58179;48.776;9.124;2023-02-26T04:38:02;96928.44;;;-2.52;100.00
55914;BME280;58179;48.776;9.124;2023-02-26T04:40:28;96932.03;;;-2.53;100.00
55914;BME280;58179;48.776;9.124;2023-02-26T04:42:54;96946.75;;;-2.53;100.00
55914;BME280;58179;48.776;9.124;2023-02-26T04:45:20;96938.81;;;-2.52;100.00
55914;BME280;58179;48.776;9.124;2023-02-26T04:47:46;96944.34;;;-2.55;100.00
55914;BME280;58179;48.776;9.124;2023-02-26T04:50:12;96944.16;;;-2.53;100.00
55914;BME280;58179;48.776;9.124;2023-02-26T04:52:38;96951.78;;;-2.52;100.00
55914;BME280;58179;48.776;9.124;2023-02-26T04:55:07;96951.41;;;-2.49;100.00
55914;BME280;58179;48.776;9.124;2023-02-26T04:57:33;96960.59;;;-2.46;100.00
55914;BME280;58179;48.776;9.124;2023-02-26T04:59:59;96948.75;;;-2.41;100.00
55914;BME280;58179;48.776;9.124;2023-02-26T05:02:25;96950.59;;;-2.35;100.00
55914;BME280;58179;48.776;9.124;2023-02-26T05:04:51;96953.91;;;-2.26;100.00
55914;BME280;58179;48.776;9.124;2023-02-26T05:07:17;96947.34;;;-2.22;100.00
55914;BME280;58179;48.776;9.124;2023-02-26T05:09:43;96951.00;;;-2.16;100.00
55914;BME280;58179;48.776;9.124;2023-02-26T05:12:10;96955.75;;;-2.20;100.00
55914;BME280;58179;48.776;9.124;2023-02-26T05:14:36;96948.16;;;-2.21;100.00
55914;BME280;58179;48.776;9.124;2023-02-26T05:17:02;96956.03;;;-2.29;100.00
55914;BME280;58179;48.776;9.124;2023-02-26T05:19:28;96960.97;;;-2.35;100.00
55914;BME280;58179;48.776;9.124;2023-02-26T05:21:54;96966.06;;;-2.41;100.00
55914;BME280;58179;48.776;9.124;2023-02-26T05:24:20;96965.19;;;-2.48;100.00
55914;BME280;58179;48.776;9.124;2023-02-26T05:26:46;96963.13;;;-2.53;100.00
55914;BME280;58179;48.776;9.124;2023-02-26T05:29:13;96973.22;;;-2.58;100.00
55914;BME280;58179;48.776;9.124;2023-02-26T05:31:39;96976.31;;;-2.62;100.00
55914;BME280;58179;48.776;9.124;2023-02-26T05:34:05;96973.13;;;-2.64;100.00
55914;BME280;58179;48.776;9.124;2023-02-26T05:36:31;96976.41;;;-2.70;100.00
55914;BME280;58179;48.776;9.124;2023-02-26T05:38:57;96982.13;;;-2.75;100.00
55914;BME280;58179;48.776;9.124;2023-02-26T05:41:22;96981.31;;;-2.76;100.00
55914;BME280;58179;48.776;9.124;2023-02-26T05:43:49;96979.88;;;-2.78;100.00
55914;BME280;58179;48.776;9.124;2023-02-26T05:46:16;96988.66;;;-2.79;100.00
55914;BME280;58179;48.776;9.124;2023-02-26T05:48:42;96995.78;;;-2.81;100.00
55914;BME280;58179;48.776;9.124;2023-02-26T05:51:08;96990.44;;;-2.80;100.00
55914;BME280;58179;48.776;9.124;2023-02-26T05:53:35;96998.72;;;-2.84;100.00
55914;BME280;58179;48.776;9.124;2023-02-26T05:56:01;97001.53;;;-2.86;100.00
55914;BME280;58179;48.776;9.124;2023-02-26T05:58:27;97006.50;;;-2.84;100.00
55914;BME280;58179;48.776;9.124;2023-02-26T06:00:53;97004.44;;;-2.89;100.00
55914;BME280;58179;48.776;9.124;2023-02-26T06:03:20;97008.19;;;-2.91;100.00
55914;BME280;58179;48.776;9.124;2023-02-26T06:05:46;97008.19;;;-2.91;100.00
55914;BME280;58179;48.776;9.124;2023-02-26T06:08:12;97020.53;;;-2.93;100.00
55914;BME280;58179;48.776;9.124;2023-02-26T06:10:40;97022.09;;;-2.92;100.00
55914;BME280;58179;48.776;9.124;2023-02-26T06:13:06;97026.69;;;-2.94;100.00
55914;BME280;58179;48.776;9.124;2023-02-26T06:15:32;97034.44;;;-2.94;100.00
55914;BME280;58179;48.776;9.124;2023-02-26T06:17:57;97035.59;;;-2.97;100.00
55914;BME280;58179;48.776;9.124;2023-02-26T06:20:25;97033.97;;;-2.98;100.00
55914;BME280;58179;48.776;9.124;2023-02-26T06:25:27;97050.78;;;-2.94;100.00
55914;BME280;58179;48.776;9.124;2023-02-26T06:27:52;97047.19;;;-2.93;100.00
55914;BME280;58179;48.776;9.124;2023-02-26T06:30:18;97050.78;;;-2.94;100.00
55914;BME280;58179;48.776;9.124;2023-02-26T06:32:44;97053.19;;;-2.92;100.00
55914;BME280;58179;48.776;9.124;2023-02-26T06:35:10;97055.16;;;-2.94;100.00
55914;BME280;58179;48.776;9.124;2023-02-26T06:37:37;97062.44;;;-2.98;100.00
55914;BME280;58179;48.776;9.124;2023-02-26T06:40:05;97067.31;;;-2.95;100.00
55914;BME280;58179;48.776;9.124;2023-02-26T06:42:31;97074.44;;;-2.97;100.00
55914;BME280;58179;48.776;9.124;2023-02-26T06:44:57;97078.25;;;-2.93;100.00
55914;BME280;58179;48.776;9.124;2023-02-26T06:47:23;97083.75;;;-2.88;100.00
55914;BME280;58179;48.776;9.124;2023-02-26T06:49:49;97088.88;;;-2.80;100.00
55914;BME280;58179;48.776;9.124;2023-02-26T06:52:15;97096.38;;;-2.70;100.00
55914;BME280;58179;48.776;9.124;2023-02-26T06:54:42;97099.38;;;-2.58;100.00
55914;BME280;58179;48.776;9.124;2023-02-26T06:57:08;97099.72;;;-2.47;100.00
55914;BME280;58179;48.776;9.124;2023-02-26T06:59:34;97109.69;;;-2.36;100.00
55914;BME280;58179;48.776;9.124;2023-02-26T07:02:00;97114.97;;;-2.29;100.00
55914;BME280;58179;48.776;9.124;2023-02-26T07:04:26;97117.00;;;-2.24;100.00
55914;BME280;58179;48.776;9.124;2023-02-26T07:06:52;97118.91;;;-2.18;100.00
55914;BME280;58179;48.776;9.124;2023-02-26T07:09:18;97116.41;;;-2.12;100.00
55914;BME280;58179;48.776;9.124;2023-02-26T07:11:48;97115.88;;;-2.07;100.00
55914;BME280;58179;48.776;9.124;2023-02-26T07:14:14;97119.53;;;-2.02;100.00
55914;BME280;58179;48.776;9.124;2023-02-26T07:16:40;97116.84;;;-1.93;100.00
55914;BME280;58179;48.776;9.124;2023-02-26T07:19:05;97116.13;;;-1.87;100.00
55914;BME280;58179;48.776;9.124;2023-02-26T07:21:36;97122.41;;;-1.82;100.00
55914;BME280;58179;48.776;9.124;2023-02-26T07:24:02;97125.91;;;-1.75;100.00
55914;BME280;58179;48.776;9.124;2023-02-26T07:26:28;97125.97;;;-1.68;100.00
55914;BME280;58179;48.776;9.124;2023-02-26T07:28:55;97126.88;;;-1.61;100.00
55914;BME280;58179;48.776;9.124;2023-02-26T07:31:21;97135.53;;;-1.54;100.00
55914;BME280;58179;48.776;9.124;2023-02-26T07:33:47;97134.28;;;-1.43;100.00
55914;BME280;58179;48.776;9.124;2023-02-26T07:36:13;97128.34;;;-1.37;100.00
55914;BME280;58179;48.776;9.124;2023-02-26T07:38:38;97126.09;;;-1.26;100.00
55914;BME280;58179;48.776;9.124;2023-02-26T07:41:04;97129.56;;;-1.19;100.00
55914;BME280;58179;48.776;9.124;2023-02-26T07:43:30;97133.53;;;-1.01;100.00
55914;BME280;58179;48.776;9.124;2023-02-26T07:45:57;97135.41;;;-0.95;100.00
55914;BME280;58179;48.776;9.124;2023-02-26T07:48:23;97139.84;;;-0.89;100.00
55914;BME280;58179;48.776;9.124;2023-02-26T07:50:51;97142.91;;;-0.86;100.00
55914;BME280;58179;48.776;9.124;2023-02-26T07:53:17;97138.06;;;-0.89;100.00
55914;BME280;58179;48.776;9.124;2023-02-26T07:55:43;97140.53;;;-0.81;100.00
55914;BME280;58179;48.776;9.124;2023-02-26T07:58:09;97147.59;;;-0.74;100.00
55914;BME280;58179;48.776;9.124;2023-02-26T08:00:34;97151.56;;;-0.79;100.00
55914;BME280;58179;48.776;9.124;2023-02-26T08:03:02;97146.59;;;-0.73;100.00
55914;BME280;58179;48.776;9.124;2023-02-26T08:05:28;97152.59;;;-0.73;100.00
55914;BME280;58179;48.776;9.124;2023-02-26T08:07:54;97155.94;;;-0.79;100.00
55914;BME280;58179;48.776;9.124;2023-02-26T08:10:20;97152.53;;;-0.80;100.00
55914;BME280;58179;48.776;9.124;2023-02-26T08:12:46;97155.59;;;-0.76;100.00
55914;BME280;58179;48.776;9.124;2023-02-26T08:15:12;97161.38;;;-0.74;100.00
55914;BME280;58179;48.776;9.124;2023-02-26T08:17:39;97151.31;;;-0.62;100.00
55914;BME280;58179;48.776;9.124;2023-02-26T08:20:08;97149.81;;;-0.50;100.00
55914;BME280;58179;48.776;9.124;2023-02-26T08:22:34;97153.28;;;-0.43;100.00
55914;BME280;58179;48.776;9.124;2023-02-26T08:25:00;97154.75;;;-0.34;100.00
55914;BME280;58179;48.776;9.124;2023-02-26T08:27:26;97157.09;;;-0.18;100.00
55914;BME280;58179;48.776;9.124;2023-02-26T08:29:52;97155.59;;;0.01;100.00
55914;BME280;58179;48.776;9.124;2023-02-26T08:32:18;97160.28;;;0.12;100.00
55914;BME280;58179;48.776;9.124;2023-02-26T08:34:45;97162.94;;;0.19;100.00
55914;BME280;58179;48.776;9.124;2023-02-26T08:37:12;97166.56;;;0.24;100.00
55914;BME280;58179;48.776;9.124;2023-02-26T08:39:39;97171.38;;;0.21;100.00
55914;BME280;58179;48.776;9.124;2023-02-26T08:42:06;97169.53;;;0.15;100.00
55914;BME280;58179;48.776;9.124;2023-02-26T08:44:33;97166.63;;;0.03;100.00
55914;BME280;58179;48.776;9.124;2023-02-26T08:46:59;97177.84;;;0.04;100.00
55914;BME280;58179;48.776;9.124;2023-02-26T08:49:25;97179.66;;;0.03;100.00
55914;BME280;58179;48.776;9.124;2023-02-26T08:51:51;97177.66;;;0.05;100.00
55914;BME280;58179;48.776;9.124;2023-02-26T08:54:18;97182.00;;;-0.02;100.00
55914;BME280;58179;48.776;9.124;2023-02-26T08:57:02;97187.84;;;0.00;100.00
55914;BME280;58179;48.776;9.124;2023-02-26T08:59:28;97189.47;;;0.08;100.00
55914;BME280;58179;48.776;9.124;2023-02-26T09:01:54;97181.47;;;0.09;100.00
55914;BME280;58179;48.776;9.124;2023-02-26T09:04:20;97198.09;;;0.08;100.00
55914;BME280;58179;48.776;9.124;2023-02-26T09:06:46;97194.94;;;0.13;100.00
55914;BME280;58179;48.776;9.124;2023-02-26T09:09:12;97196.50;;;0.07;100.00
55914;BME280;58179;48.776;9.124;2023-02-26T09:11:39;97198.03;;;0.02;100.00
55914;BME280;58179;48.776;9.124;2023-02-26T09:14:05;97194.41;;;-0.04;100.00
55914;BME280;58179;48.776;9.124;2023-02-26T09:16:32;97192.59;;;-0.04;100.00
55914;BME280;58179;48.776;9.124;2023-02-26T09:19:01;97199.91;;;-0.14;100.00
55914;BME280;58179;48.776;9.124;2023-02-26T09:21:27;97215.78;;;-0.09;100.00
55914;BME280;58179;48.776;9.124;2023-02-26T09:23:53;97215.59;;;-0.07;100.00
55914;BME280;58179;48.776;9.124;2023-02-26T09:26:19;97203.81;;;-0.03;100.00
55914;BME280;58179;48.776;9.124;2023-02-26T09:28:46;97207.22;;;-0.03;100.00
55914;BME280;58179;48.776;9.124;2023-02-26T09:31:12;97207.03;;;-0.01;100.00
55914;BME280;58179;48.776;9.124;2023-02-26T09:33:38;97209.25;;;0.02;100.00
55914;BME280;58179;48.776;9.124;2023-02-26T09:36:05;97225.84;;;0.01;100.00
55914;BME280;58179;48.776;9.124;2023-02-26T09:38:31;97230.69;;;0.04;100.00
55914;BME280;58179;48.776;9.124;2023-02-26T09:40:59;97234.91;;;0.05;100.00
55914;BME280;58179;48.776;9.124;2023-02-26T09:43:59;97223.75;;;0.11;100.00
55914;BME280;58179;48.776;9.124;2023-02-26T09:46:38;97231.38;;;0.13;100.00
55914;BME280;58179;48.776;9.124;2023-02-26T09:49:21;97233.56;;;0.16;100.00
55914;BME280;58179;48.776;9.124;2023-02-26T09:51:55;97232.34;;;0.12;100.00
55914;BME280;58179;48.776;9.124;2023-02-26T09:54:26;97243.53;;;0.06;100.00
55914;BME280;58179;48.776;9.124;2023-02-26T09:56:58;97242.47;;;0.00;100.00
55914;BME280;58179;48.776;9.124;2023-02-26T09:59:31;97244.28;;;-0.01;100.00
55914;BME280;58179;48.776;9.124;2023-02-26T10:02:03;97248.72;;;0.06;100.00
55914;BME280;58179;48.776;9.124;2023-02-26T10:04:49;97243.75;;;0.11;100.00
55914;BME280;58179;48.776;9.124;2023-02-26T10:07:25;97250.56;;;0.12;100.00
55914;BME280;58179;48.776;9.124;2023-02-26T10:10:08;97246.97;;;0.13;100.00
55914;BME280;58179;48.776;9.124;2023-02-26T10:12:40;97257.81;;;0.16;100.00
55914;BME280;58179;48.776;9.124;2023-02-26T10:15:12;97253.59;;;0.15;100.00
55914;BME280;58179;48.776;9.124;2023-02-26T10:17:55;97248.00;;;0.18;100.00
55914;BME280;58179;48.776;9.124;2023-02-26T10:20:29;97260.44;;;0.23;100.00
55914;BME280;58179;48.776;9.124;2023-02-26T10:23:02;97253.72;;;0.28;100.00
55914;BME280;58179;48.776;9.124;2023-02-26T10:25:35;97257.13;;;0.29;100.00
55914;BME280;58179;48.776;9.124;2023-02-26T10:28:20;97268.34;;;0.29;100.00
55914;BME280;58179;48.776;9.124;2023-02-26T10:30:57;97270.13;;;0.29;100.00
55914;BME280;58179;48.776;9.124;2023-02-26T10:33:36;97265.91;;;0.28;100.00
55914;BME280;58179;48.776;9.124;2023-02-26T10:36:16;97263.06;;;0.23;100.00
55914;BME280;58179;48.776;9.124;2023-02-26T10:38:49;97269.69;;;0.25;100.00
55914;BME280;58179;48.776;9.124;2023-02-26T10:41:22;97272.13;;;0.27;100.00
55914;BME280;58179;48.776;9.124;2023-02-26T10:43:59;97265.78;;;0.36;100.00
55914;BME280;58179;48.776;9.124;2023-02-26T10:46:36;97274.94;;;0.32;100.00
55914;BME280;58179;48.776;9.124;2023-02-26T10:49:44;97276.19;;;0.36;100.00
55914;BME280;58179;48.776;9.124;2023-02-26T10:52:17;97273.59;;;0.36;100.00
55914;BME280;58179;48.776;9.124;2023-02-26T10:54:58;97279.97;;;0.33;100.00
55914;BME280;58179;48.776;9.124;2023-02-26T10:57:30;97281.81;;;0.39;100.00
55914;BME280;58179;48.776;9.124;2023-02-26T10:59:58;97266.44;;;0.45;100.00
55914;BME280;58179;48.776;9.124;2023-02-26T11:02:38;97278.69;;;0.51;100.00
55914;BME280;58179;48.776;9.124;2023-02-26T11:05:14;97275.31;;;0.57;100.00
55914;BME280;58179;48.776;9.124;2023-02-26T11:07:42;97272.13;;;0.61;100.00
55914;BME280;58179;48.776;9.124;2023-02-26T11:10:17;97273.75;;;0.62;100.00
55914;BME280;58179;48.776;9.124;2023-02-26T11:12:44;97276.34;;;0.62;100.00
55914;BME280;58179;48.776;9.124;2023-02-26T11:15:14;97270.59;;;0.67;100.00
55914;BME280;58179;48.776;9.124;2023-02-26T11:17:44;97270.59;;;0.67;100.00
55914;BME280;58179;48.776;9.124;2023-02-26T11:20:18;97275.19;;;0.65;100.00
55914;BME280;58179;48.776;9.124;2023-02-26T11:22:52;97268.97;;;0.66;100.00
55914;BME280;58179;48.776;9.124;2023-02-26T11:25:24;97265.78;;;0.70;100.00
55914;BME280;58179;48.776;9.124;2023-02-26T11:28:01;97268.69;;;0.82;100.00
55914;BME280;58179;48.776;9.124;2023-02-26T11:30:34;97260.53;;;0.98;100.00
55914;BME280;58179;48.776;9.124;2023-02-26T11:33:15;97274.66;;;1.17;100.00
55914;BME280;58179;48.776;9.124;2023-02-26T11:35:42;97266.88;;;1.30;100.00
55914;BME280;58179;48.776;9.124;2023-02-26T11:38:16;97278.56;;;1.41;100.00
55914;BME280;58179;48.776;9.124;2023-02-26T11:40:47;97273.91;;;1.36;100.00
55914;BME280;58179;48.776;9.124;2023-02-26T11:43:16;97276.50;;;1.30;100.00
55914;BME280;58179;48.776;9.124;2023-02-26T11:45:46;97271.69;;;1.27;100.00
55914;BME280;58179;48.776;9.124;2023-02-26T11:48:18;97275.28;;;1.19;100.00
55914;BME280;58179;48.776;9.124;2023-02-26T11:50:50;97272.41;;;1.14;100.00
55914;BME280;58179;48.776;9.124;2023-02-26T11:53:21;97274.66;;;1.17;100.00
55914;BME280;58179;48.776;9.124;2023-02-26T11:55:52;97279.06;;;1.16;100.00
55914;BME280;58179;48.776;9.124;2023-02-26T11:58:21;97283.84;;;1.13;100.00
55914;BME280;58179;48.776;9.124;2023-02-26T12:00:48;97274.00;;;1.08;100.00
55914;BME280;58179;48.776;9.124;2023-02-26T12:03:21;97273.19;;;1.01;100.00
55914;BME280;58179;48.776;9.124;2023-02-26T12:05:48;97270.13;;;0.98;100.00
55914;BME280;58179;48.776;9.124;2023-02-26T12:08:19;97285.19;;;0.96;100.00
55914;BME280;58179;48.776;9.124;2023-02-26T12:11:03;97287.75;;;0.89;100.00
55914;BME280;58179;48.776;9.124;2023-02-26T12:13:37;97289.28;;;0.77;100.00
55914;BME280;58179;48.776;9.124;2023-02-26T12:16:16;97293.53;;;0.85;100.00
55914;BME280;58179;48.776;9.124;2023-02-26T12:18:55;97287.75;;;0.89;100.00
55914;BME280;58179;48.776;9.124;2023-02-26T12:21:49;97288.00;;;1.01;100.00
55914;BME280;58179;48.776;9.124;2023-02-26T12:25:07;97289.06;;;1.13;100.00
55914;BME280;58179;48.776;9.124;2023-02-26T12:27:56;97283.09;;;1.19;100.00
55914;BME280;58179;48.776;9.124;2023-02-26T12:30:49;97288.50;;;1.17;100.00
55914;BME280;58179;48.776;9.124;2023-02-26T12:33:35;97290.09;;;1.12;100.00
55914;BME280;58179;48.776;9.124;2023-02-26T12:36:17;97295.84;;;1.07;100.00
55914;BME280;58179;48.776;9.124;2023-02-26T12:38:52;97290.63;;;1.01;100.00
55914;BME280;58179;48.776;9.124;2023-02-26T12:41:32;97290.22;;;0.97;100.00
55914;BME280;58179;48.776;9.124;2023-02-26T12:44:18;97291.75;;;0.92;100.00
55914;BME280;58179;48.776;9.124;2023-02-26T12:50:15;97302.41;;;0.90;100.00
55914;BME280;58179;48.776;9.124;2023-02-26T12:53:33;97288.56;;;0.90;100.00
55914;BME280;58179;48.776;9.124;2023-02-26T12:59:27;97293.66;;;1.04;100.00
55914;BME280;58179;48.776;9.124;2023-02-26T13:02:35;97291.31;;;1.23;100.00
55914;BME280;58179;48.776;9.124;2023-02-26T13:05:22;97298.63;;;1.47;100.00
55914;BME280;58179;48.776;9.124;2023-02-26T13:08:04;97303.28;;;1.58;100.00
55914;BME280;58179;48.776;9.124;2023-02-26T13:10:45;97305.88;;;1.58;100.00
55914;BME280;58179;48.776;9.124;2023-02-26T13:13:33;97304.50;;;1.62;100.00
55914;BME280;58179;48.776;9.124;2023-02-26T13:16:18;97306.50;;;1.67;100.00
55914;BME280;58179;48.776;9.124;2023-02-26T13:18:56;97309.72;;;1.62;100.00
55914;BME280;58179;48.776;9.124;2023-02-26T13:21:28;97302.09;;;1.67;100.00
55914;BME280;58179;48.776;9.124;2023-02-26T13:24:01;97308.75;;;1.76;100.00
55914;BME280;58179;48.776;9.124;2023-02-26T13:26:31;97303.56;;;1.89;100.00
55914;BME280;58179;48.776;9.124;2023-02-26T13:29:01;97298.75;;;1.93;100.00
55914;BME280;58179;48.776;9.124;2023-02-26T13:31:34;97301.38;;;2.06;100.00